Fresno, CA

2:19 PM PDT on April 01, 2015 (GMT -0700)
Sierra Sky Park | | Change Station
CLOSE
Current Station
Personal Weather Station
Location: Fresno, CA
Elevation: 341 ft
Nearby Weather Stations

Elev 341 ft 36.84 °N, 119.87 °W | Updated 14 minutes ago

Partly Cloudy
Partly Cloudy
72.7 °F
Feels Like 76 °F
N
10.3
Wind Variable Wind from West

Today
High -- | Low -- °F
--% Chance of Precip.
Yesterday
High -- | Low -- °F
Precip. -- in
6:45 AM 7:21 PM
Waxing Gibbous, 94% visible
Pressure 30.06 in
Visibility 10.0 miles
Clouds Few 20000 ft
Mostly Cloudy 25000 ft
Heat Index 76 °F
Dew Point 39 °F
Humidity 30%
Rainfall 0.00 in
Snow Depth Not available.
UV 5 out of 12
Pollen 10.30 out of 12
Air Quality Not available.
Flu Activity Not available.
METAR KFAT 012053Z 31005KT 10SM FEW200 BKN250 21/02 A3007 RMK AO2 SLP179 MTNS OBSC HZ DSNT N-E-S T02060022 56025

More Conditions Fewer Conditions

Pressure 30.06 in
Visibility 10.0 miles
Clouds Few 20000 ft
Mostly Cloudy 25000 ft
Heat Index 76 °F
Dew Point 39 °F
Humidity 30%
Rainfall 0.00 in
Snow Depth Not available.
UV 5 out of 12
Pollen 10.30 out of 12
Air Quality Not available.
Flu Activity Not available.
METAR KFAT 012053Z 31005KT 10SM FEW200 BKN250 21/02 A3007 RMK AO2 SLP179 MTNS OBSC HZ DSNT N-E-S T02060022 56025

More Conditions Fewer Conditions

10-Day Weather Forecast

Almanac

Astronomy

Apr. 01, 2015 Rise Set
Actual Time
Civil Twilight
Nautical Twilight
Astronomical Twilight
Moon
Length of Visible Light
Length of Day
Tomorrow will be .
, % of the Moon is Illuminated

Today's Extremes

State Highs State Lows

Community

WunderPhotos

Upload Photos

1,810,088 photos uploaded!

WunderBlogs® & News

Nearby

Air Quality

  Air Quality AQ Index Pollutant
Not available.

Snow Depth

Station Depth Elevation

Earthquake Activity

City Distance Mag. Time & Date
Minimum magnitude displayed is 2.5.

Coastal Water Temperatures

Place Temperature

Stations

Nearby Weather Stations

Station Location Temp. Windchill Dew Point Humidity Wind Precip. Elev Updated Type